Time;durP1;ratioP1;P1;durP2;ratioP2;P2;SDS_P1;SDS_P2;PMS_P1;PMS_P2;Temp;Humidity;BMP_temperature;BMP_pressure;BME280_temperature;BME280_humidity;BME280_pressure;Samples;Min_cycle;Max_cycle;Signal;HPM_P1;HPM_P2
2022/03/18 00:02:14;;;;;;;33.63;18.33;;;8.90;99.90;;;;;;4992042;28;20393;-53
2022/03/18 00:04:41;;;;;;;34.35;18.15;;;8.70;99.90;;;;;;5009906;28;20381;-51
2022/03/18 00:07:07;;;;;;;36.20;18.48;;;8.70;99.90;;;;;;5009434;28;20940;-51
2022/03/18 00:09:33;;;;;;;34.92;19.65;;;8.70;99.90;;;;;;5009815;28;20467;-53
2022/03/18 00:11:59;;;;;;;34.40;18.73;;;8.70;99.90;;;;;;5008965;28;20399;-53
2022/03/18 00:14:25;;;;;;;31.85;18.73;;;8.70;99.90;;;;;;5009545;28;20531;-53
2022/03/18 00:16:51;;;;;;;35.63;18.55;;;8.80;99.90;;;;;;5008653;28;20452;-53
2022/03/18 00:19:17;;;;;;;33.50;18.02;;;8.80;99.90;;;;;;5013480;28;20412;-53
2022/03/18 00:21:43;;;;;;;29.58;16.80;;;8.70;99.90;;;;;;5013391;28;20909;-51
2022/03/18 00:24:09;;;;;;;30.13;17.10;;;8.60;99.90;;;;;;5012960;28;20474;-53
2022/03/18 00:26:36;;;;;;;31.17;16.20;;;8.60;99.90;;;;;;5013650;28;20403;-51
2022/03/18 00:29:02;;;;;;;32.15;17.40;;;8.70;99.90;;;;;;5012665;28;20525;-51
2022/03/18 00:31:29;;;;;;;29.30;15.48;;;8.60;99.90;;;;;;5013181;28;20472;-51
2022/03/18 00:33:55;;;;;;;30.43;16.00;;;8.50;99.90;;;;;;5012574;28;20451;-51
2022/03/18 00:36:22;;;;;;;28.95;16.15;;;8.50;99.90;;;;;;5013172;28;20854;-52
2022/03/18 00:38:47;;;;;;;30.17;15.55;;;8.50;99.90;;;;;;5012491;28;20445;-53
2022/03/18 00:41:14;;;;;;;28.80;16.23;;;8.60;99.90;;;;;;5013133;28;20496;-51
2022/03/18 00:43:39;;;;;;;27.65;15.25;;;8.60;99.90;;;;;;5013353;28;20472;-53
2022/03/18 00:46:06;;;;;;;27.75;14.95;;;8.60;99.90;;;;;;5012413;28;20504;-53
2022/03/18 00:54:00;;;;;;;26.27;14.40;;;8.70;99.90;;;;;;5012235;28;20746;-53
2022/03/18 00:56:25;;;;;;;26.27;14.80;;;8.70;99.90;;;;;;5012894;28;20397;-51
2022/03/18 00:58:51;;;;;;;27.05;14.25;;;8.70;99.90;;;;;;5011772;28;20870;-51
2022/03/18 01:01:16;;;;;;;28.13;14.30;;;8.60;99.90;;;;;;4995211;28;20407;-53
2022/03/18 01:03:42;;;;;;;29.20;14.63;;;8.60;99.90;;;;;;5012933;28;20734;-53
2022/03/18 01:06:08;;;;;;;23.97;13.30;;;8.60;99.90;;;;;;5012007;28;20381;-53
2022/03/18 01:08:34;;;;;;;24.80;14.05;;;8.60;99.90;;;;;;5012814;28;20470;-52
2022/03/18 01:11:01;;;;;;;24.10;14.13;;;8.60;99.90;;;;;;5012338;28;20770;-53
2022/03/18 01:13:27;;;;;;;27.17;13.90;;;8.80;99.90;;;;;;5012482;28;20399;-53
2022/03/18 01:15:52;;;;;;;24.73;13.70;;;8.70;99.90;;;;;;5012058;28;20389;-53
2022/03/18 01:18:18;;;;;;;26.30;13.98;;;8.60;99.90;;;;;;5012623;28;20388;-53
2022/03/18 01:20:43;;;;;;;29.90;13.70;;;8.60;99.90;;;;;;5012082;28;20501;-53
2022/03/18 01:23:11;;;;;;;25.98;14.35;;;8.60;99.90;;;;;;5011841;28;20385;-53
2022/03/18 01:25:37;;;;;;;25.77;13.65;;;8.60;99.90;;;;;;5012456;28;20397;-53
2022/03/18 01:28:06;;;;;;;25.08;13.25;;;8.70;99.90;;;;;;5011614;28;20424;-53
2022/03/18 01:30:32;;;;;;;23.45;13.35;;;8.60;99.90;;;;;;5011230;28;20392;-53
2022/03/18 01:33:02;;;;;;;23.40;13.80;;;8.60;99.90;;;;;;5011322;28;20723;-53
2022/03/18 01:35:28;;;;;;;24.70;13.20;;;8.60;99.90;;;;;;5012083;28;20389;-53
2022/03/18 01:37:54;;;;;;;22.90;12.68;;;8.60;99.90;;;;;;5011260;28;20813;-53
2022/03/18 01:40:20;;;;;;;23.37;13.53;;;8.60;99.90;;;;;;5012315;28;20417;-51
2022/03/18 01:42:46;;;;;;;22.60;12.68;;;8.50;99.90;;;;;;5011713;28;20522;-50
2022/03/18 01:45:11;;;;;;;25.15;13.77;;;8.60;99.90;;;;;;5011569;28;20392;-51
2022/03/18 01:47:42;;;;;;;23.20;13.00;;;8.50;99.90;;;;;;5011619;28;20804;-50
2022/03/18 01:50:10;;;;;;;25.90;13.48;;;8.40;99.90;;;;;;5011177;28;20915;-51
2022/03/18 01:52:37;;;;;;;24.65;13.75;;;8.50;99.90;;;;;;5012069;28;20401;-53
2022/03/18 01:55:03;;;;;;;23.63;13.20;;;8.50;99.90;;;;;;5011442;28;20392;-53
2022/03/18 01:57:28;;;;;;;23.52;13.02;;;8.50;99.90;;;;;;4993751;28;20401;-54
2022/03/18 01:59:54;;;;;;;23.45;13.40;;;8.50;99.90;;;;;;5010587;28;20384;-53
2022/03/18 02:02:20;;;;;;;23.73;12.70;;;8.60;99.90;;;;;;5011738;28;20373;-53
2022/03/18 02:04:47;;;;;;;22.95;13.18;;;8.60;99.90;;;;;;4993507;28;20401;-53
2022/03/18 02:07:13;;;;;;;25.07;12.83;;;8.60;99.90;;;;;;5011466;28;20412;-51
2022/03/18 02:09:40;;;;;;;23.90;12.65;;;8.50;99.90;;;;;;5011383;28;20388;-53
2022/03/18 02:12:07;;;;;;;24.95;13.00;;;8.40;99.90;;;;;;5010900;28;20881;-53
2022/03/18 02:14:44;;;;;;;24.90;13.50;;;8.50;99.90;;;;;;5011448;28;20385;-53
2022/03/18 02:17:12;;;;;;;24.90;13.75;;;8.50;99.90;;;;;;5010649;28;20519;-53
2022/03/18 02:19:40;;;;;;;20.95;12.10;;;8.50;99.90;;;;;;5011409;28;20479;-53
2022/03/18 02:22:12;;;;;;;24.33;12.45;;;8.40;99.90;;;;;;5009925;28;20401;-52
2022/03/18 02:24:41;;;;;;;21.92;12.27;;;8.30;99.90;;;;;;5011270;28;20475;-51
2022/03/18 02:27:07;;;;;;;23.17;11.60;;;8.20;99.90;;;;;;5010313;28;20409;-50
2022/03/18 02:29:33;;;;;;;25.13;12.10;;;8.30;99.90;;;;;;5011040;28;20432;-50
2022/03/18 02:32:00;;;;;;;23.20;12.10;;;8.10;99.90;;;;;;5010101;28;20448;-50
2022/03/18 02:34:27;;;;;;;21.35;10.75;;;8.10;99.90;;;;;;5010896;28;20866;-51
2022/03/18 02:36:54;;;;;;;18.70;10.60;;;8.10;99.90;;;;;;5009818;28;20396;-50
2022/03/18 02:39:20;;;;;;;19.98;11.20;;;8.00;99.90;;;;;;5010814;28;20380;-51
2022/03/18 02:41:45;;;;;;;20.30;10.60;;;8.00;99.90;;;;;;5010353;28;20476;-51
2022/03/18 02:44:11;;;;;;;20.13;10.70;;;8.10;99.90;;;;;;5010130;28;20764;-51
2022/03/18 02:46:37;;;;;;;20.83;10.57;;;8.20;99.90;;;;;;5010650;28;20474;-51
2022/03/18 02:49:04;;;;;;;20.50;10.73;;;8.20;99.90;;;;;;5010026;28;20447;-50
2022/03/18 02:51:30;;;;;;;19.45;10.55;;;8.10;99.90;;;;;;4993221;28;20484;-51
2022/03/18 02:53:57;;;;;;;19.80;9.95;;;8.20;99.90;;;;;;5009737;28;20380;-51
2022/03/18 02:56:24;;;;;;;20.13;10.18;;;8.20;99.90;;;;;;4993124;28;20492;-50
2022/03/18 02:58:50;;;;;;;19.95;10.70;;;8.30;99.90;;;;;;5009826;28;20393;-52
2022/03/18 03:01:16;;;;;;;16.60;9.95;;;8.30;99.90;;;;;;5010434;28;20475;-53
2022/03/18 03:03:41;;;;;;;21.90;11.05;;;8.20;99.90;;;;;;5010853;28;20934;-54
2022/03/18 03:08:51;;;;;;;18.10;8.82;;;8.20;99.90;;;;;;5009372;28;20416;-51
2022/03/18 03:11:16;;;;;;;17.50;9.73;;;8.10;99.90;;;;;;4992706;28;20397;-50
2022/03/18 03:13:43;;;;;;;18.67;9.80;;;8.10;99.90;;;;;;5010287;28;20389;-51
2022/03/18 03:16:09;;;;;;;18.90;10.10;;;8.10;99.90;;;;;;5009530;28;20384;-51
2022/03/18 03:18:35;;;;;;;17.58;9.90;;;8.10;99.90;;;;;;5010272;28;20389;-50
2022/03/18 03:21:01;;;;;;;17.98;9.60;;;8.10;99.90;;;;;;5009354;28;20417;-50
2022/03/18 03:23:27;;;;;;;21.65;10.77;;;8.00;99.90;;;;;;5010213;28;20895;-50
2022/03/18 03:25:53;;;;;;;20.65;10.27;;;8.00;99.90;;;;;;5009436;28;20452;-50
2022/03/18 03:28:19;;;;;;;20.83;10.35;;;8.10;99.90;;;;;;5010317;28;20408;-51
2022/03/18 03:30:45;;;;;;;16.88;9.35;;;8.40;99.90;;;;;;5010195;28;20388;-51
2022/03/18 03:33:11;;;;;;;16.63;9.60;;;8.30;99.90;;;;;;5009567;28;20389;-50
2022/03/18 03:35:37;;;;;;;20.77;10.47;;;8.20;99.90;;;;;;5010092;28;20484;-50
2022/03/18 03:38:04;;;;;;;19.58;10.02;;;8.10;99.90;;;;;;5009495;28;20399;-50
2022/03/18 03:40:31;;;;;;;19.15;9.73;;;8.10;99.90;;;;;;5009704;28;20847;-50
2022/03/18 03:42:57;;;;;;;17.20;9.40;;;8.20;99.90;;;;;;5009453;28;20403;-50
2022/03/18 03:45:23;;;;;;;19.03;9.17;;;8.10;99.90;;;;;;5010091;28;20890;-51
2022/03/18 03:47:48;;;;;;;18.15;9.48;;;8.00;99.90;;;;;;5009205;28;20494;-50
2022/03/18 03:50:15;;;;;;;17.98;9.90;;;8.00;99.90;;;;;;4975837;28;20409;-50
2022/03/18 03:52:41;;;;;;;18.87;9.57;;;8.00;99.90;;;;;;5009233;28;20388;-51
2022/03/18 03:55:09;;;;;;;18.88;10.30;;;7.90;99.90;;;;;;5009217;28;20388;-51
2022/03/18 03:57:35;;;;;;;19.15;10.15;;;8.00;99.90;;;;;;5009866;28;20384;-51
2022/03/18 04:00:03;;;;;;;16.33;9.43;;;8.10;99.90;;;;;;5008951;28;20377;-50
2022/03/18 04:02:28;;;;;;;16.90;9.73;;;8.10;99.90;;;;;;5009812;28;20396;-51
2022/03/18 04:04:54;;;;;;;18.52;10.20;;;8.20;99.90;;;;;;5009321;28;20509;-52
2022/03/18 04:07:20;;;;;;;17.30;9.32;;;8.20;99.90;;;;;;5009736;28;20440;-52
2022/03/18 04:09:49;;;;;;;17.23;9.60;;;8.20;99.90;;;;;;5009742;28;20424;-53
2022/03/18 04:12:15;;;;;;;15.93;9.07;;;8.20;99.90;;;;;;5009552;28;20874;-53
2022/03/18 04:14:41;;;;;;;14.82;8.43;;;8.10;99.90;;;;;;5009692;28;20388;-51
2022/03/18 04:17:06;;;;;;;17.45;10.32;;;8.20;99.90;;;;;;5008629;28;20784;-50
2022/03/18 04:19:32;;;;;;;17.27;9.70;;;8.10;99.90;;;;;;5009686;28;20945;-50
2022/03/18 04:21:58;;;;;;;18.33;9.50;;;8.00;99.90;;;;;;5008762;28;20412;-50
2022/03/18 04:24:24;;;;;;;17.88;9.40;;;8.00;99.90;;;;;;5009536;28;20475;-51
2022/03/18 04:26:49;;;;;;;17.83;9.80;;;7.90;99.90;;;;;;5009265;28;20383;-51
2022/03/18 04:29:15;;;;;;;18.23;9.15;;;7.90;99.90;;;;;;4991845;28;20385;-50
2022/03/18 04:31:41;;;;;;;16.47;8.90;;;7.80;99.90;;;;;;5008472;28;20837;-50
2022/03/18 04:34:06;;;;;;;15.57;9.38;;;7.90;99.90;;;;;;5009052;28;20377;-50
2022/03/18 04:36:32;;;;;;;18.70;10.10;;;8.00;99.90;;;;;;5009522;28;20392;-51
2022/03/18 04:38:59;;;;;;;17.80;9.90;;;9.00;99.90;;;;;;5008587;28;20392;-51
2022/03/18 04:41:25;;;;;;;18.43;9.37;;;7.90;99.90;;;;;;4992238;28;20432;-51
2022/03/18 04:43:51;;;;;;;17.50;9.73;;;8.80;99.90;;;;;;5008886;28;20956;-51
2022/03/18 04:46:17;;;;;;;18.43;9.80;;;7.90;99.90;;;;;;5009165;28;20424;-51
2022/03/18 04:48:42;;;;;;;17.73;9.48;;;7.90;99.90;;;;;;5009586;28;20851;-51
2022/03/18 04:51:08;;;;;;;18.20;9.55;;;7.90;99.90;;;;;;5008353;28;20472;-50
2022/03/18 04:53:35;;;;;;;18.30;9.27;;;7.90;99.90;;;;;;5008914;28;20818;-50
2022/03/18 04:56:01;;;;;;;18.33;9.55;;;7.90;99.90;;;;;;5008881;28;20380;-51
2022/03/18 04:58:27;;;;;;;19.23;9.10;;;7.80;99.90;;;;;;5009338;28;20739;-50
2022/03/18 05:00:53;;;;;;;19.30;10.23;;;7.80;99.90;;;;;;5007725;28;20431;-50
2022/03/18 05:03:18;;;;;;;18.07;9.30;;;7.80;99.90;;;;;;5010135;28;20811;-51
2022/03/18 05:05:44;;;;;;;17.90;9.80;;;7.80;99.90;;;;;;5013124;28;20444;-51
2022/03/18 05:08:09;;;;;;;20.07;10.57;;;7.70;99.90;;;;;;5011996;28;20411;-50
2022/03/18 05:10:36;;;;;;;19.23;10.00;;;7.80;99.90;;;;;;5012780;28;20396;-51
2022/03/18 05:13:02;;;;;;;18.00;9.70;;;7.80;99.90;;;;;;5009615;28;20392;-50
2022/03/18 05:15:28;;;;;;;18.53;10.00;;;7.90;99.90;;;;;;4991888;28;20399;-50
2022/03/18 05:17:54;;;;;;;22.23;10.55;;;8.00;99.90;;;;;;4992133;28;20531;-50
2022/03/18 05:20:21;;;;;;;17.90;9.85;;;7.90;99.90;;;;;;5003699;28;20774;-50
2022/03/18 05:22:47;;;;;;;18.92;10.05;;;7.90;99.90;;;;;;5012662;28;20392;-53
2022/03/18 05:25:13;;;;;;;19.83;10.20;;;8.00;99.90;;;;;;5011713;28;20381;-52
2022/03/18 05:27:43;;;;;;;18.40;10.20;;;8.10;99.90;;;;;;5011604;28;20412;-53
2022/03/18 05:30:14;;;;;;;21.20;10.10;;;8.20;99.90;;;;;;5007497;28;21114;-52
2022/03/18 05:32:41;;;;;;;21.10;10.70;;;8.10;99.90;;;;;;4994752;28;20480;-50
2022/03/18 05:35:07;;;;;;;21.67;10.60;;;8.00;99.90;;;;;;5011318;28;20385;-50
2022/03/18 05:37:33;;;;;;;17.73;9.75;;;7.90;99.90;;;;;;5012086;28;20396;-50
2022/03/18 05:39:59;;;;;;;21.67;10.98;;;7.90;99.90;;;;;;5011348;28;20390;-50
2022/03/18 05:42:26;;;;;;;19.80;11.03;;;7.90;99.90;;;;;;5012254;28;20385;-51
2022/03/18 05:44:52;;;;;;;20.58;11.23;;;7.90;99.90;;;;;;5009990;28;20389;-50
2022/03/18 05:47:18;;;;;;;20.95;10.82;;;7.90;99.90;;;;;;5012278;28;20415;-50
2022/03/18 05:49:45;;;;;;;22.77;10.83;;;7.70;99.90;;;;;;5011815;28;20420;-51
2022/03/18 05:52:11;;;;;;;21.75;11.00;;;7.80;99.90;;;;;;5011174;28;20388;-50
2022/03/18 05:54:36;;;;;;;20.73;11.02;;;7.80;99.90;;;;;;5011756;28;20389;-51
2022/03/18 05:57:02;;;;;;;21.97;11.70;;;7.80;99.90;;;;;;5011194;28;20874;-50
2022/03/18 05:59:30;;;;;;;22.30;11.68;;;7.80;99.90;;;;;;5010181;28;20413;-51
2022/03/18 06:01:58;;;;;;;25.27;11.45;;;7.90;99.90;;;;;;4991133;28;20390;-52
2022/03/18 06:04:25;;;;;;;21.48;11.32;;;7.80;99.90;;;;;;5004986;28;20404;-50
2022/03/18 06:06:52;;;;;;;21.95;11.40;;;7.80;99.90;;;;;;5006757;28;20379;-51
2022/03/18 06:12:04;;;;;;;20.80;11.00;;;7.90;99.90;;;;;;4991402;28;20482;-51
2022/03/18 06:14:31;;;;;;;23.33;11.27;;;7.80;99.90;;;;;;4995283;28;20835;-51
2022/03/18 06:16:58;;;;;;;22.80;12.02;;;7.80;99.90;;;;;;5010146;28;20395;-51
2022/03/18 06:19:25;;;;;;;23.20;12.10;;;7.90;99.90;;;;;;5011483;28;20849;-51
2022/03/18 06:21:51;;;;;;;22.02;12.57;;;8.00;99.90;;;;;;5010809;28;20469;-51
2022/03/18 06:24:19;;;;;;;23.92;12.82;;;8.00;99.90;;;;;;5001423;28;20387;-51
2022/03/18 06:26:44;;;;;;;24.85;12.98;;;8.70;99.90;;;;;;4991827;28;20433;-51
2022/03/18 06:29:10;;;;;;;24.17;12.07;;;7.90;99.90;;;;;;4990744;28;20571;-51
2022/03/18 06:31:39;;;;;;;23.80;12.07;;;8.00;99.90;;;;;;4995297;28;20555;-51
2022/03/18 06:34:05;;;;;;;24.15;12.65;;;8.00;99.90;;;;;;5009978;28;20389;-51
2022/03/18 06:36:31;;;;;;;27.70;12.98;;;8.10;99.90;;;;;;5011353;28;20490;-51
2022/03/18 06:38:56;;;;;;;25.50;13.25;;;8.10;99.90;;;;;;5010393;28;20400;-51
2022/03/18 06:41:22;;;;;;;25.23;12.40;;;8.10;99.90;;;;;;5009519;28;20392;-52
2022/03/18 06:43:49;;;;;;;25.17;12.00;;;8.10;99.90;;;;;;5010837;28;21002;-51
2022/03/18 06:46:15;;;;;;;24.90;13.40;;;8.10;99.90;;;;;;5010061;28;20377;-51
2022/03/18 06:48:41;;;;;;;25.02;13.13;;;8.10;99.90;;;;;;5011107;28;20439;-51
2022/03/18 06:51:07;;;;;;;28.80;15.85;;;8.10;99.90;;;;;;4992438;28;20459;-51
2022/03/18 06:53:33;;;;;;;28.80;16.65;;;8.30;99.90;;;;;;5010574;28;20866;-52
2022/03/18 06:56:00;;;;;;;25.60;15.17;;;8.40;99.90;;;;;;5010227;28;20385;-51
2022/03/18 06:58:27;;;;;;;27.90;13.50;;;8.40;99.90;;;;;;5010786;28;20393;-52
2022/03/18 07:00:54;;;;;;;25.88;13.10;;;8.30;99.90;;;;;;5009988;28;20381;-51
2022/03/18 07:03:19;;;;;;;24.00;13.15;;;8.10;99.90;;;;;;5009422;28;20472;-51
2022/03/18 07:05:45;;;;;;;22.88;11.80;;;8.20;99.90;;;;;;5003707;28;20484;-51
2022/03/18 07:08:10;;;;;;;25.07;12.83;;;8.20;99.90;;;;;;5010270;28;20405;-51
2022/03/18 07:10:36;;;;;;;22.88;12.63;;;8.30;99.90;;;;;;5009900;28;20392;-50
2022/03/18 07:13:03;;;;;;;24.40;11.87;;;8.50;99.90;;;;;;5009766;28;20837;-51
2022/03/18 07:15:28;;;;;;;24.73;12.65;;;8.50;99.90;;;;;;4990636;28;20382;-51
2022/03/18 07:18:01;;;;;;;22.37;11.87;;;8.40;99.90;;;;;;4990168;28;20887;-51
2022/03/18 07:20:29;;;;;;;23.35;12.00;;;8.50;99.90;;;;;;4990479;28;20418;-51
2022/03/18 07:23:09;;;;;;;22.38;11.60;;;8.50;99.90;;;;;;4990137;28;20409;-52
2022/03/18 07:25:43;;;;;;;21.95;12.10;;;8.50;99.90;;;;;;4990543;28;20425;-51
2022/03/18 07:28:10;;;;;;;25.33;12.18;;;8.30;99.90;;;;;;4988912;28;20414;-51
2022/03/18 07:30:37;;;;;;;22.42;12.05;;;8.40;99.90;;;;;;4990588;28;20394;-51
2022/03/18 07:33:03;;;;;;;22.90;12.23;;;8.40;99.90;;;;;;4989917;28;20853;-51
2022/03/18 07:35:30;;;;;;;25.10;12.88;;;8.40;99.90;;;;;;4989910;28;20378;-52
2022/03/18 07:37:55;;;;;;;22.70;12.73;;;8.50;99.90;;;;;;4990015;28;20386;-51
2022/03/18 07:40:21;;;;;;;25.85;12.90;;;8.60;99.90;;;;;;5004335;28;20431;-51
2022/03/18 07:42:52;;;;;;;27.13;13.10;;;8.40;99.90;;;;;;5010211;28;20381;-53
2022/03/18 07:45:26;;;;;;;27.08;12.90;;;8.50;99.90;;;;;;5009547;28;20383;-53
2022/03/18 07:47:53;;;;;;;23.13;12.77;;;8.70;99.90;;;;;;5010027;28;20874;-53
2022/03/18 07:50:20;;;;;;;25.17;12.95;;;8.70;99.90;;;;;;5009193;28;20400;-53
2022/03/18 07:52:49;;;;;;;26.75;13.25;;;8.80;99.90;;;;;;5009922;28;20463;-51
2022/03/18 07:55:17;;;;;;;24.92;13.15;;;8.80;99.90;;;;;;5009185;28;20478;-54
2022/03/18 07:57:42;;;;;;;29.27;14.07;;;8.80;99.90;;;;;;5009743;28;20389;-53
2022/03/18 08:00:10;;;;;;;29.40;15.00;;;9.00;99.90;;;;;;5009101;28;20389;-53
2022/03/18 08:02:36;;;;;;;26.73;15.05;;;8.90;99.90;;;;;;5009774;28;20472;-53
2022/03/18 08:05:01;;;;;;;32.03;16.20;;;9.00;99.90;;;;;;5009028;28;20410;-53
2022/03/18 08:07:28;;;;;;;36.03;17.20;;;9.10;99.90;;;;;;5009215;28;20448;-53
2022/03/18 08:09:54;;;;;;;30.30;14.88;;;9.20;99.90;;;;;;5009221;28;20479;-53
2022/03/18 08:12:19;;;;;;;32.22;16.10;;;9.20;99.90;;;;;;5009356;28;20475;-53
2022/03/18 08:14:45;;;;;;;39.42;18.95;;;9.30;99.90;;;;;;5009283;28;20498;-53
2022/03/18 08:17:11;;;;;;;35.38;17.70;;;9.20;99.90;;;;;;5008510;28;20376;-53
2022/03/18 08:19:36;;;;;;;35.13;17.80;;;9.20;99.90;;;;;;5009581;28;20524;-53
2022/03/18 08:22:04;;;;;;;33.42;17.08;;;9.30;99.90;;;;;;5008678;28;20408;-53
2022/03/18 08:24:30;;;;;;;37.10;19.05;;;9.40;99.90;;;;;;5009517;28;20747;-53
2022/03/18 08:26:56;;;;;;;32.83;16.85;;;9.50;99.90;;;;;;5008893;28;20400;-53
2022/03/18 08:29:22;;;;;;;29.70;15.32;;;9.50;99.90;;;;;;5009777;28;20385;-53
2022/03/18 08:31:47;;;;;;;32.27;16.20;;;9.40;99.90;;;;;;5009532;28;20428;-53
2022/03/18 08:34:14;;;;;;;30.00;16.80;;;9.40;99.90;;;;;;5008611;28;20555;-53
2022/03/18 08:36:40;;;;;;;31.02;15.25;;;9.60;99.90;;;;;;5009151;28;20397;-51
2022/03/18 08:39:06;;;;;;;29.13;15.87;;;9.20;99.90;;;;;;5010698;28;20391;-51
2022/03/18 08:41:32;;;;;;;31.65;16.85;;;9.10;99.90;;;;;;5012978;28;20389;-54
2022/03/18 08:43:58;;;;;;;29.98;15.35;;;9.30;99.90;;;;;;5012520;28;20480;-53
2022/03/18 08:46:23;;;;;;;35.57;16.80;;;9.70;99.90;;;;;;5012948;28;20451;-53
2022/03/18 08:48:49;;;;;;;35.67;16.25;;;9.90;99.90;;;;;;5012830;28;20411;-53
2022/03/18 08:51:16;;;;;;;32.10;16.60;;;10.10;99.90;;;;;;5012041;28;21155;-53
2022/03/18 08:53:42;;;;;;;30.85;15.23;;;10.10;99.90;;;;;;4995163;28;20483;-53
2022/03/18 08:56:07;;;;;;;30.02;16.10;;;10.00;99.90;;;;;;5012353;28;20854;-53
2022/03/18 08:58:33;;;;;;;29.67;15.03;;;9.90;99.90;;;;;;5012780;28;20389;-53
2022/03/18 09:00:59;;;;;;;29.10;15.02;;;10.00;99.90;;;;;;5011647;28;20396;-53
2022/03/18 09:03:25;;;;;;;35.23;17.03;;;9.90;99.90;;;;;;5012612;28;20396;-53
2022/03/18 09:05:51;;;;;;;33.05;17.10;;;9.90;99.90;;;;;;5012929;28;20792;-54
2022/03/18 09:08:17;;;;;;;39.15;18.13;;;9.90;99.90;;;;;;5011682;28;20404;-53
2022/03/18 09:10:42;;;;;;;31.65;16.70;;;9.80;99.90;;;;;;5012792;28;20412;-53
2022/03/18 09:13:08;;;;;;;30.20;17.10;;;9.90;99.90;;;;;;5012114;28;20389;-53
2022/03/18 09:15:34;;;;;;;31.85;16.42;;;10.10;99.90;;;;;;5012624;28;20412;-53
2022/03/18 09:18:00;;;;;;;31.97;16.40;;;10.50;99.90;;;;;;5011852;28;20381;-53
2022/03/18 09:20:25;;;;;;;30.15;16.25;;;10.80;99.90;;;;;;5012002;28;20957;-53
2022/03/18 09:22:51;;;;;;;33.15;17.25;;;10.70;99.90;;;;;;5012186;28;20388;-54
2022/03/18 09:25:17;;;;;;;31.27;16.40;;;10.60;99.90;;;;;;5011871;28;20465;-53
2022/03/18 09:27:43;;;;;;;29.05;16.05;;;10.60;99.90;;;;;;5011225;28;20461;-53
2022/03/18 09:30:10;;;;;;;30.43;16.13;;;11.00;99.90;;;;;;5011478;28;20743;-51
2022/03/18 09:32:36;;;;;;;31.08;15.90;;;11.30;99.90;;;;;;5012360;28;20395;-53
2022/03/18 09:35:02;;;;;;;32.47;16.45;;;11.50;99.90;;;;;;5011556;28;20468;-53
2022/03/18 09:37:28;;;;;;;32.10;17.13;;;11.30;99.90;;;;;;4994560;28;20396;-53
2022/03/18 09:39:53;;;;;;;32.08;15.95;;;11.40;99.90;;;;;;4994414;28;20413;-51
2022/03/18 09:42:19;;;;;;;33.60;17.30;;;12.10;99.90;;;;;;5011381;28;20496;-51
2022/03/18 09:44:45;;;;;;;31.43;16.23;;;12.60;99.90;;;;;;5012385;28;20409;-51
2022/03/18 09:47:11;;;;;;;28.35;15.85;;;12.50;99.90;;;;;;5011068;28;20878;-51
2022/03/18 09:49:37;;;;;;;28.75;16.20;;;12.20;99.90;;;;;;5011413;28;20401;-51
2022/03/18 09:52:04;;;;;;;29.77;15.55;;;12.70;99.90;;;;;;5010687;28;20389;-51
2022/03/18 09:54:34;;;;;;;32.70;17.83;;;12.90;99.90;;;;;;5011671;28;20468;-51
2022/03/18 09:57:01;;;;;;;34.40;20.20;;;13.60;99.90;;;;;;5011286;28;20385;-51
2022/03/18 09:59:27;;;;;;;34.13;19.50;;;14.00;99.90;;;;;;5011521;28;20381;-51
2022/03/18 10:02:21;;;;;;;37.08;20.85;;;14.30;99.90;;;;;;5011568;28;20389;-51
2022/03/18 10:04:58;;;;;;;34.60;20.13;;;14.80;99.90;;;;;;4994102;28;20451;-53
2022/03/18 10:07:25;;;;;;;38.65;21.30;;;15.00;99.90;;;;;;5011512;28;20508;-53
2022/03/18 10:10:11;;;;;;;34.45;19.02;;;15.20;99.90;;;;;;5011088;28;20814;-51
2022/03/18 10:12:38;;;;;;;38.60;21.95;;;14.70;99.90;;;;;;4993819;28;20409;-54
2022/03/18 10:15:12;;;;;;;33.22;20.63;;;14.80;99.90;;;;;;5010344;28;20392;-54
2022/03/18 10:17:45;;;;;;;36.50;21.43;;;15.10;99.90;;;;;;5011379;28;20428;-54
2022/03/18 10:20:40;;;;;;;36.17;21.02;;;15.40;99.90;;;;;;5010403;28;20540;-54
2022/03/18 10:23:25;;;;;;;39.13;22.85;;;15.30;99.90;;;;;;5010436;28;20387;-51
2022/03/18 10:25:57;;;;;;;37.17;21.73;;;14.60;99.90;;;;;;5010919;28;20478;-53
2022/03/18 10:28:37;;;;;;;36.93;21.20;;;14.90;99.90;;;;;;5010512;28;20446;-53
2022/03/18 10:31:18;;;;;;;34.75;19.30;;;15.50;99.90;;;;;;5010638;28;20780;-53
2022/03/18 10:37:04;;;;;;;37.45;20.83;;;15.10;99.90;;;;;;5010864;28;20400;-53
2022/03/18 10:39:34;;;;;;;36.63;21.05;;;15.60;99.90;;;;;;5010531;28;20399;-53
2022/03/18 10:42:03;;;;;;;38.78;24.30;;;15.60;99.90;;;;;;5010280;28;20387;-53
2022/03/18 10:44:41;;;;;;;39.20;24.50;;;15.90;99.90;;;;;;5010900;28;20800;-53
2022/03/18 10:47:06;;;;;;;39.47;23.65;;;15.40;99.90;;;;;;5010014;28;20454;-52
2022/03/18 10:49:32;;;;;;;42.88;24.30;;;14.40;99.90;;;;;;5010428;28;20405;-52
2022/03/18 10:52:10;;;;;;;40.53;23.80;;;13.90;99.90;;;;;;5010312;28;20465;-52
2022/03/18 10:54:35;;;;;;;42.40;24.35;;;13.50;99.90;;;;;;5010569;28;20866;-52
2022/03/18 10:57:02;;;;;;;41.78;23.23;;;13.50;99.90;;;;;;5009462;28;20469;-52
2022/03/18 10:59:28;;;;;;;39.40;22.80;;;13.70;99.90;;;;;;5010135;28;20401;-52
2022/03/18 11:01:58;;;;;;;37.85;22.60;;;13.80;99.90;;;;;;5010192;28;20396;-52
2022/03/18 11:04:26;;;;;;;40.88;23.05;;;13.60;99.90;;;;;;5009777;28;20377;-52
2022/03/18 11:12:31;;;;;;;37.33;22.20;;;13.20;99.90;;;;;;5010415;28;20739;-56
2022/03/18 11:14:58;;;;;;;39.25;21.50;;;13.00;99.90;;;;;;5010099;28;20450;-52
2022/03/18 11:17:24;;;;;;;37.90;23.08;;;13.10;99.90;;;;;;5010129;28;20407;-52
2022/03/18 11:19:54;;;;;;;37.30;22.27;;;13.20;99.90;;;;;;5009900;28;20404;-52
2022/03/18 11:22:22;;;;;;;40.63;23.23;;;13.60;99.90;;;;;;5009560;28;20392;-52
2022/03/18 11:24:49;;;;;;;38.90;22.03;;;14.10;99.90;;;;;;5010324;28;20411;-52
2022/03/18 11:27:16;;;;;;;39.73;21.80;;;14.20;99.90;;;;;;4991898;28;20413;-52
2022/03/18 11:29:42;;;;;;;37.38;21.60;;;14.00;99.90;;;;;;5010209;28;20385;-52
2022/03/18 11:32:11;;;;;;;38.15;22.27;;;13.60;99.90;;;;;;5009425;28;20396;-52
2022/03/18 11:34:51;;;;;;;36.90;22.75;;;13.30;99.90;;;;;;5009959;28;20480;-52
2022/03/18 11:37:18;;;;;;;40.53;23.00;;;13.60;99.90;;;;;;5009005;28;20421;-52
2022/03/18 11:39:46;;;;;;;36.92;22.35;;;13.70;99.90;;;;;;5009810;28;20479;-52
2022/03/18 11:42:16;;;;;;;36.53;21.50;;;13.60;99.90;;;;;;5009314;28;20388;-53
2022/03/18 11:44:58;;;;;;;39.47;22.40;;;13.90;99.90;;;;;;5010176;28;20369;-52
2022/03/18 11:47:30;;;;;;;40.17;22.35;;;13.60;99.90;;;;;;5009632;28;20578;-52
2022/03/18 11:50:01;;;;;;;34.67;22.53;;;13.40;99.90;;;;;;5009760;28;20427;-52
2022/03/18 11:52:27;;;;;;;38.65;22.23;;;13.60;99.90;;;;;;4992485;28;20752;-52
2022/03/18 11:54:58;;;;;;;36.65;21.63;;;13.60;99.90;;;;;;5009693;28;20732;-52
2022/03/18 11:57:29;;;;;;;37.83;22.38;;;13.40;99.90;;;;;;5009286;28;20385;-52
2022/03/18 11:59:57;;;;;;;34.27;20.27;;;13.90;99.90;;;;;;5009687;28;20380;-52
2022/03/18 12:02:37;;;;;;;40.58;23.38;;;13.90;99.90;;;;;;5009088;28;20408;-53
2022/03/18 12:05:05;;;;;;;36.80;22.88;;;13.90;99.90;;;;;;5009270;28;20425;-52
2022/03/18 12:07:46;;;;;;;36.50;21.73;;;13.50;99.90;;;;;;5009661;28;20901;-52
2022/03/18 12:10:14;;;;;;;36.33;21.00;;;13.30;99.90;;;;;;5008580;28;20381;-52
2022/03/18 12:12:46;;;;;;;35.50;22.13;;;13.40;99.90;;;;;;5009483;28;20377;-52
2022/03/18 12:15:22;;;;;;;34.47;21.35;;;13.30;99.90;;;;;;5012683;28;20434;-53
2022/03/18 12:17:48;;;;;;;42.47;23.67;;;13.40;99.90;;;;;;5013829;28;20400;-52
2022/03/18 12:20:21;;;;;;;37.10;21.25;;;13.50;99.90;;;;;;5012738;28;20408;-54
2022/03/18 12:22:50;;;;;;;36.03;21.93;;;13.80;99.90;;;;;;5013750;28;20381;-56
2022/03/18 12:25:15;;;;;;;34.90;21.20;;;14.00;99.90;;;;;;5012679;28;20523;-53
2022/03/18 12:27:43;;;;;;;34.65;20.88;;;14.10;99.90;;;;;;5013615;28;20862;-52
2022/03/18 12:30:11;;;;;;;35.45;21.20;;;14.20;99.80;;;;;;5012445;28;21154;-52
2022/03/18 12:32:51;;;;;;;35.10;20.13;;;13.90;99.90;;;;;;5013569;28;20416;-52
2022/03/18 12:35:18;;;;;;;35.38;20.15;;;13.60;99.90;;;;;;4995042;28;20388;-52
2022/03/18 12:38:06;;;;;;;33.88;20.10;;;13.30;99.90;;;;;;5013288;28;20380;-52
2022/03/18 12:40:33;;;;;;;33.58;20.23;;;13.20;99.90;;;;;;5013362;28;20865;-52
2022/03/18 12:43:02;;;;;;;37.63;20.45;;;13.50;99.90;;;;;;4995446;28;21008;-52
2022/03/18 12:45:43;;;;;;;34.45;20.20;;;13.60;99.90;;;;;;5012796;28;20400;-52
2022/03/18 12:48:13;;;;;;;33.13;19.15;;;13.50;99.90;;;;;;5012461;28;20812;-52
2022/03/18 12:50:50;;;;;;;32.28;18.90;;;13.60;99.90;;;;;;5013202;28;20405;-52
2022/03/18 12:53:27;;;;;;;37.15;20.35;;;13.80;99.90;;;;;;5012220;28;20532;-52
2022/03/18 12:55:56;;;;;;;33.35;19.10;;;14.10;99.90;;;;;;5012929;28;20491;-52
2022/03/18 12:58:24;;;;;;;31.90;18.80;;;14.20;99.70;;;;;;5011706;28;20634;-53